Terminal Aerodrome Forecast
Issued by NWS Twin Cities, MN

Home | Current Version | Previous Version | Text Only | Print | Product List | Glossary On
Versions: 1 2 3 4 5 6 7 8 9 10 11 12 13
000
FTUS43 KMPX 191139
TAFEAU
TAF
KEAU 191139Z 1912/2012 13011KT P6SM -RA SCT030 OVC060
     FM191400 14012KT P6SM -RA SCT015 OVC025
     FM192000 24007KT P6SM VCSH BKN015
     FM200100 29008KT P6SM BKN025
     FM200600 33008KT P6SM BKN100=

USA.gov is the U.S. government's official web portal to all federal, state and local government web resources and services.